GES001 LOWK-LSZR
Flight info
| Callsign | GES001 |
|---|---|
| Flight time | 0h 48m |
| Altitude | 40000 |
| Route | VILAK DCT ERKIR L608 KPT |
| Aircraft | GLF5/M-SBDE2E3FGHIJ3J4J5P2RWXY/LB1D1 |
Departure
| Time | 2026-05-08 18:02 |
|---|---|
| Airport | Klagenfurt Airport (LOWK) |
Arrival
| Time | 2026-05-08 18:51 |
|---|---|
| Airport | Sankt Gallen Altenrhein Airport (LSZR) |
| Time | Latitude | Longitude | Altitude | Speed | Heading |
|---|---|---|---|---|---|
| 2026-05-08 17:38 | 46.64924 | 14.32509 | 1513 ft | 0 kts | 75° |
| 2026-05-08 17:57 | 46.64924 | 14.32510 | 1512 ft | 0 kts | 75° |
| 2026-05-08 17:57 | 46.64925 | 14.32517 | 1512 ft | 1 kts | 75° |
| 2026-05-08 17:58 | 46.64927 | 14.32530 | 1512 ft | 1 kts | 74° |
| 2026-05-08 17:58 | 46.64929 | 14.32556 | 1512 ft | 3 kts | 99° |
| 2026-05-08 17:58 | 46.64897 | 14.32585 | 1511 ft | 8 kts | 164° |
| 2026-05-08 17:58 | 46.64828 | 14.32611 | 1510 ft | 11 kts | 166° |
| 2026-05-08 17:59 | 46.64744 | 14.32645 | 1506 ft | 13 kts | 159° |
| 2026-05-08 17:59 | 46.64664 | 14.32626 | 1504 ft | 13 kts | 257° |
| 2026-05-08 17:59 | 46.64672 | 14.32531 | 1505 ft | 6 kts | 273° |
| 2026-05-08 17:59 | 46.64657 | 14.32471 | 1504 ft | 6 kts | 224° |
| 2026-05-08 18:00 | 46.64612 | 14.32448 | 1503 ft | 7 kts | 195° |
| 2026-05-08 18:00 | 46.64516 | 14.32457 | 1501 ft | 8 kts | 106° |
| 2026-05-08 18:00 | 46.64514 | 14.32468 | 1501 ft | 0 kts | 106° |
| 2026-05-08 18:01 | 46.64465 | 14.32711 | 1500 ft | 70 kts | 106° |
| 2026-05-08 18:02 | 46.64235 | 14.33876 | 1579 ft | 157 kts | 106° |
| 2026-05-08 18:02 | 46.64047 | 14.34887 | 2249 ft | 162 kts | 104° |
| 2026-05-08 18:02 | 46.63666 | 14.36969 | 3434 ft | 183 kts | 106° |
| 2026-05-08 18:02 | 46.63302 | 14.38697 | 4679 ft | 174 kts | 107° |
| 2026-05-08 18:03 | 46.62976 | 14.40264 | 5795 ft | 169 kts | 107° |
| 2026-05-08 18:03 | 46.62637 | 14.41911 | 6712 ft | 175 kts | 106° |
| 2026-05-08 18:03 | 46.62290 | 14.43584 | 7674 ft | 178 kts | 106° |
| 2026-05-08 18:03 | 46.62019 | 14.45326 | 8566 ft | 184 kts | 86° |
| 2026-05-08 18:04 | 46.62552 | 14.46935 | 9492 ft | 184 kts | 38° |
| 2026-05-08 18:04 | 46.63720 | 14.47463 | 10420 ft | 183 kts | 352° |
| 2026-05-08 18:04 | 46.64787 | 14.46575 | 11270 ft | 186 kts | 306° |
| 2026-05-08 18:04 | 46.65187 | 14.44821 | 12151 ft | 188 kts | 279° |
| 2026-05-08 18:05 | 46.65381 | 14.42965 | 13023 ft | 191 kts | 278° |
| 2026-05-08 18:05 | 46.65554 | 14.41016 | 13669 ft | 210 kts | 277° |
| 2026-05-08 18:05 | 46.65741 | 14.38594 | 13613 ft | 271 kts | 276° |
| 2026-05-08 18:05 | 46.65942 | 14.35620 | 13997 ft | 312 kts | 275° |
| 2026-05-08 18:06 | 46.66132 | 14.32541 | 15625 ft | 308 kts | 275° |
| 2026-05-08 18:06 | 46.66315 | 14.29458 | 17011 ft | 313 kts | 274° |
| 2026-05-08 18:06 | 46.66496 | 14.26296 | 18295 ft | 321 kts | 274° |
| 2026-05-08 18:06 | 46.66680 | 14.23063 | 19707 ft | 325 kts | 273° |
| 2026-05-08 18:07 | 46.66689 | 14.19792 | 20999 ft | 329 kts | 266° |
| 2026-05-08 18:07 | 46.66983 | 14.16476 | 22188 ft | 339 kts | 281° |
| 2026-05-08 18:07 | 46.67458 | 14.13127 | 23483 ft | 344 kts | 278° |
| 2026-05-08 18:07 | 46.67857 | 14.09691 | 24800 ft | 349 kts | 277° |
| 2026-05-08 18:08 | 46.68223 | 14.06191 | 26102 ft | 353 kts | 276° |
| 2026-05-08 18:08 | 46.68573 | 14.02668 | 27386 ft | 355 kts | 275° |
| 2026-05-08 18:08 | 46.68917 | 13.99099 | 28559 ft | 360 kts | 275° |
| 2026-05-08 18:08 | 46.69261 | 13.95482 | 29668 ft | 364 kts | 275° |
| 2026-05-08 18:09 | 46.69724 | 13.91852 | 30782 ft | 371 kts | 285° |
| 2026-05-08 18:09 | 46.70965 | 13.88520 | 31705 ft | 385 kts | 298° |
| 2026-05-08 18:09 | 46.72485 | 13.85221 | 32591 ft | 391 kts | 298° |
| 2026-05-08 18:09 | 46.74011 | 13.81882 | 33362 ft | 398 kts | 298° |
| 2026-05-08 18:10 | 46.75548 | 13.78511 | 34291 ft | 400 kts | 298° |
| 2026-05-08 18:10 | 46.77120 | 13.75054 | 34912 ft | 408 kts | 298° |
| 2026-05-08 18:10 | 46.78697 | 13.71575 | 35347 ft | 412 kts | 298° |
| 2026-05-08 18:10 | 46.80285 | 13.68071 | 35757 ft | 415 kts | 298° |
| 2026-05-08 18:11 | 46.81880 | 13.64548 | 36120 ft | 418 kts | 299° |
| 2026-05-08 18:11 | 46.83469 | 13.61036 | 36631 ft | 422 kts | 300° |
| 2026-05-08 18:11 | 46.85097 | 13.57430 | 37125 ft | 426 kts | 300° |
| 2026-05-08 18:11 | 46.86703 | 13.53870 | 37606 ft | 430 kts | 300° |
| 2026-05-08 18:12 | 46.88326 | 13.50266 | 38031 ft | 435 kts | 300° |
| 2026-05-08 18:12 | 46.89985 | 13.46578 | 38439 ft | 440 kts | 301° |
| 2026-05-08 18:12 | 46.91636 | 13.42910 | 39593 ft | 423 kts | 301° |
| 2026-05-08 18:12 | 46.93241 | 13.39334 | 40033 ft | 423 kts | 301° |
| 2026-05-08 18:13 | 46.96438 | 13.32197 | 40096 ft | 417 kts | 300° |
| 2026-05-08 18:13 | 46.99596 | 13.25123 | 40098 ft | 412 kts | 300° |
| 2026-05-08 18:14 | 47.02735 | 13.18077 | 40102 ft | 412 kts | 300° |
| 2026-05-08 18:14 | 47.05868 | 13.11029 | 40099 ft | 413 kts | 300° |
| 2026-05-08 18:15 | 47.09020 | 13.03917 | 40097 ft | 414 kts | 300° |
| 2026-05-08 18:15 | 47.12151 | 12.96835 | 40100 ft | 414 kts | 300° |
| 2026-05-08 18:16 | 47.15264 | 12.89773 | 40107 ft | 414 kts | 300° |
| 2026-05-08 18:16 | 47.18399 | 12.82647 | 40119 ft | 414 kts | 300° |
| 2026-05-08 18:17 | 47.21529 | 12.75513 | 40120 ft | 414 kts | 300° |
| 2026-05-08 18:17 | 47.24655 | 12.68369 | 40122 ft | 414 kts | 300° |
| 2026-05-08 18:18 | 47.27768 | 12.61237 | 40116 ft | 414 kts | 300° |
| 2026-05-08 18:18 | 47.30887 | 12.54072 | 40113 ft | 413 kts | 300° |
| 2026-05-08 18:19 | 47.33992 | 12.46920 | 40104 ft | 414 kts | 300° |
| 2026-05-08 18:19 | 47.37097 | 12.39748 | 40100 ft | 413 kts | 300° |
| 2026-05-08 18:20 | 47.40187 | 12.32593 | 40101 ft | 412 kts | 300° |
| 2026-05-08 18:20 | 47.43260 | 12.25461 | 40101 ft | 412 kts | 300° |
| 2026-05-08 18:21 | 47.46345 | 12.18279 | 40106 ft | 412 kts | 300° |
| 2026-05-08 18:21 | 47.49396 | 12.11159 | 40104 ft | 414 kts | 300° |
| 2026-05-08 18:22 | 47.52469 | 12.03970 | 40085 ft | 414 kts | 300° |
| 2026-05-08 18:22 | 47.53767 | 12.00186 | 40075 ft | 408 kts | 285° |
| 2026-05-08 18:22 | 47.54436 | 11.96080 | 40087 ft | 408 kts | 281° |
| 2026-05-08 18:23 | 47.55603 | 11.87922 | 40095 ft | 410 kts | 280° |
| 2026-05-08 18:23 | 47.56762 | 11.79658 | 39920 ft | 409 kts | 280° |
| 2026-05-08 18:24 | 47.57325 | 11.75623 | 39815 ft | 408 kts | 280° |
| 2026-05-08 18:24 | 47.57897 | 11.71498 | 39712 ft | 408 kts | 281° |
| 2026-05-08 18:24 | 47.58468 | 11.67379 | 39332 ft | 412 kts | 280° |
| 2026-05-08 18:24 | 47.59046 | 11.63190 | 38752 ft | 413 kts | 281° |
| 2026-05-08 18:25 | 47.59616 | 11.59056 | 38206 ft | 411 kts | 280° |
| 2026-05-08 18:25 | 47.60188 | 11.54902 | 37613 ft | 410 kts | 280° |
| 2026-05-08 18:25 | 47.60754 | 11.50773 | 36995 ft | 410 kts | 280° |
| 2026-05-08 18:25 | 47.61318 | 11.46637 | 36379 ft | 410 kts | 279° |
| 2026-05-08 18:26 | 47.61880 | 11.42513 | 35751 ft | 410 kts | 279° |
| 2026-05-08 18:26 | 47.62421 | 11.38393 | 35101 ft | 408 kts | 278° |
| 2026-05-08 18:26 | 47.62925 | 11.34252 | 34453 ft | 407 kts | 277° |
| 2026-05-08 18:26 | 47.63401 | 11.30339 | 33764 ft | 405 kts | 277° |
| 2026-05-08 18:27 | 47.63850 | 11.26644 | 33154 ft | 401 kts | 277° |
| 2026-05-08 18:27 | 47.64195 | 11.23798 | 32714 ft | 401 kts | 277° |
| 2026-05-08 18:27 | 47.64847 | 11.18397 | 31892 ft | 404 kts | 277° |
| 2026-05-08 18:27 | 47.65337 | 11.14331 | 31277 ft | 402 kts | 276° |
| 2026-05-08 18:28 | 47.65803 | 11.10450 | 30678 ft | 396 kts | 276° |
| 2026-05-08 18:28 | 47.66274 | 11.06504 | 30043 ft | 390 kts | 276° |
| 2026-05-08 18:28 | 47.66740 | 11.02591 | 29438 ft | 383 kts | 277° |
| 2026-05-08 18:28 | 47.67200 | 10.98722 | 28854 ft | 376 kts | 277° |
| 2026-05-08 18:29 | 47.67647 | 10.94941 | 28269 ft | 370 kts | 277° |
| 2026-05-08 18:29 | 47.68090 | 10.91197 | 27701 ft | 366 kts | 277° |
| 2026-05-08 18:29 | 47.68525 | 10.87498 | 27145 ft | 364 kts | 278° |
| 2026-05-08 18:29 | 47.68955 | 10.83836 | 26583 ft | 362 kts | 278° |
| 2026-05-08 18:30 | 47.69365 | 10.80341 | 26049 ft | 360 kts | 278° |
| 2026-05-08 18:30 | 47.69794 | 10.76672 | 25479 ft | 358 kts | 278° |
| 2026-05-08 18:30 | 47.70217 | 10.73040 | 24921 ft | 355 kts | 278° |
| 2026-05-08 18:30 | 47.70636 | 10.69430 | 24361 ft | 353 kts | 278° |
| 2026-05-08 18:31 | 47.71051 | 10.65856 | 23832 ft | 351 kts | 279° |
| 2026-05-08 18:31 | 47.71464 | 10.62274 | 23285 ft | 349 kts | 279° |
| 2026-05-08 18:31 | 47.71873 | 10.58733 | 22732 ft | 346 kts | 279° |
| 2026-05-08 18:31 | 47.72278 | 10.55203 | 22214 ft | 344 kts | 279° |
| 2026-05-08 18:32 | 47.72679 | 10.51704 | 21675 ft | 342 kts | 279° |
| 2026-05-08 18:32 | 47.73076 | 10.48231 | 21146 ft | 340 kts | 279° |
| 2026-05-08 18:32 | 47.73471 | 10.44765 | 20631 ft | 337 kts | 279° |
| 2026-05-08 18:32 | 47.73860 | 10.41338 | 20113 ft | 336 kts | 279° |
| 2026-05-08 18:33 | 47.74248 | 10.37915 | 19591 ft | 333 kts | 279° |
| 2026-05-08 18:33 | 47.74321 | 10.34517 | 19062 ft | 330 kts | 258° |
| 2026-05-08 18:33 | 47.73637 | 10.31259 | 18579 ft | 329 kts | 250° |
| 2026-05-08 18:33 | 47.72873 | 10.28105 | 18051 ft | 326 kts | 250° |
| 2026-05-08 18:34 | 47.72102 | 10.24949 | 17544 ft | 324 kts | 250° |
| 2026-05-08 18:34 | 47.71331 | 10.21809 | 17047 ft | 323 kts | 250° |
| 2026-05-08 18:34 | 47.70561 | 10.18687 | 16559 ft | 320 kts | 250° |
| 2026-05-08 18:34 | 47.69797 | 10.15592 | 16055 ft | 319 kts | 249° |
| 2026-05-08 18:35 | 47.69033 | 10.12509 | 15608 ft | 317 kts | 249° |
| 2026-05-08 18:35 | 47.68271 | 10.09436 | 15069 ft | 315 kts | 249° |
| 2026-05-08 18:35 | 47.67517 | 10.06397 | 14575 ft | 313 kts | 249° |
| 2026-05-08 18:35 | 47.66764 | 10.03370 | 14102 ft | 312 kts | 249° |
| 2026-05-08 18:36 | 47.66012 | 10.00348 | 13624 ft | 309 kts | 249° |
| 2026-05-08 18:36 | 47.65268 | 9.97363 | 13082 ft | 307 kts | 249° |
| 2026-05-08 18:36 | 47.64527 | 9.94400 | 12636 ft | 304 kts | 249° |
| 2026-05-08 18:36 | 47.63794 | 9.91471 | 12167 ft | 301 kts | 249° |
| 2026-05-08 18:37 | 47.63070 | 9.88582 | 11695 ft | 298 kts | 249° |
| 2026-05-08 18:37 | 47.62348 | 9.85711 | 11229 ft | 295 kts | 249° |
| 2026-05-08 18:37 | 47.61634 | 9.82871 | 10770 ft | 292 kts | 249° |
| 2026-05-08 18:37 | 47.60931 | 9.80074 | 10326 ft | 289 kts | 249° |
| 2026-05-08 18:38 | 47.60234 | 9.77311 | 9883 ft | 287 kts | 250° |
| 2026-05-08 18:38 | 47.59536 | 9.74547 | 9436 ft | 285 kts | 250° |
| 2026-05-08 18:38 | 47.58841 | 9.71793 | 8992 ft | 284 kts | 250° |
| 2026-05-08 18:38 | 47.58146 | 9.69048 | 8548 ft | 285 kts | 250° |
| 2026-05-08 18:39 | 47.57451 | 9.66299 | 8110 ft | 284 kts | 250° |
| 2026-05-08 18:39 | 47.56757 | 9.63559 | 7671 ft | 283 kts | 250° |
| 2026-05-08 18:39 | 47.56064 | 9.60828 | 7231 ft | 282 kts | 250° |
| 2026-05-08 18:39 | 47.55372 | 9.58106 | 6793 ft | 281 kts | 250° |
| 2026-05-08 18:40 | 47.54681 | 9.55391 | 6356 ft | 280 kts | 250° |
| 2026-05-08 18:40 | 47.54000 | 9.52704 | 6073 ft | 275 kts | 250° |
| 2026-05-08 18:40 | 47.53343 | 9.50045 | 6080 ft | 276 kts | 250° |
| 2026-05-08 18:40 | 47.52684 | 9.47383 | 6078 ft | 266 kts | 250° |
| 2026-05-08 18:41 | 47.52065 | 9.44884 | 6056 ft | 250 kts | 250° |
| 2026-05-08 18:41 | 47.51480 | 9.42526 | 6036 ft | 236 kts | 250° |
| 2026-05-08 18:41 | 47.50925 | 9.40291 | 5933 ft | 227 kts | 250° |
| 2026-05-08 18:41 | 47.50478 | 9.38067 | 5646 ft | 225 kts | 269° |
| 2026-05-08 18:42 | 47.50687 | 9.35819 | 5399 ft | 218 kts | 282° |
| 2026-05-08 18:42 | 47.51046 | 9.33646 | 5035 ft | 215 kts | 297° |
| 2026-05-08 18:42 | 47.51927 | 9.31989 | 5019 ft | 196 kts | 314° |
| 2026-05-08 18:42 | 47.52846 | 9.30511 | 5013 ft | 193 kts | 314° |
| 2026-05-08 18:43 | 47.53758 | 9.29045 | 5022 ft | 191 kts | 314° |
| 2026-05-08 18:43 | 47.54611 | 9.27661 | 5028 ft | 174 kts | 314° |
| 2026-05-08 18:43 | 47.55423 | 9.26345 | 5018 ft | 172 kts | 314° |
| 2026-05-08 18:43 | 47.56152 | 9.24926 | 5007 ft | 175 kts | 291° |
| 2026-05-08 18:44 | 47.56130 | 9.23149 | 5025 ft | 177 kts | 247° |
| 2026-05-08 18:44 | 47.55275 | 9.21869 | 5023 ft | 178 kts | 202° |
| 2026-05-08 18:44 | 47.54069 | 9.21821 | 5024 ft | 174 kts | 157° |
| 2026-05-08 18:44 | 47.53102 | 9.22871 | 5041 ft | 172 kts | 135° |
| 2026-05-08 18:45 | 47.52228 | 9.24088 | 5025 ft | 172 kts | 134° |
| 2026-05-08 18:45 | 47.51646 | 9.25581 | 5018 ft | 168 kts | 99° |
| 2026-05-08 18:45 | 47.51462 | 9.27301 | 5029 ft | 169 kts | 97° |
| 2026-05-08 18:45 | 47.51283 | 9.29030 | 5023 ft | 169 kts | 97° |
| 2026-05-08 18:46 | 47.51105 | 9.30763 | 5023 ft | 169 kts | 97° |
| 2026-05-08 18:46 | 47.50927 | 9.32500 | 5021 ft | 170 kts | 97° |
| 2026-05-08 18:46 | 47.50748 | 9.34237 | 4957 ft | 171 kts | 97° |
| 2026-05-08 18:46 | 47.50577 | 9.35891 | 4662 ft | 151 kts | 97° |
| 2026-05-08 18:47 | 47.50418 | 9.37383 | 4403 ft | 144 kts | 96° |
| 2026-05-08 18:47 | 47.50270 | 9.38848 | 4163 ft | 138 kts | 96° |
| 2026-05-08 18:47 | 47.50134 | 9.40167 | 3908 ft | 123 kts | 96° |
| 2026-05-08 18:47 | 47.50004 | 9.41400 | 3705 ft | 120 kts | 96° |
| 2026-05-08 18:48 | 47.49881 | 9.42620 | 3512 ft | 120 kts | 95° |
| 2026-05-08 18:48 | 47.49755 | 9.43850 | 3308 ft | 121 kts | 95° |
| 2026-05-08 18:48 | 47.49628 | 9.45082 | 3096 ft | 121 kts | 95° |
| 2026-05-08 18:48 | 47.49499 | 9.46325 | 2882 ft | 123 kts | 96° |
| 2026-05-08 18:49 | 47.49368 | 9.47580 | 2664 ft | 124 kts | 96° |
| 2026-05-08 18:49 | 47.49236 | 9.48849 | 2444 ft | 125 kts | 96° |
| 2026-05-08 18:49 | 47.49103 | 9.50120 | 2223 ft | 125 kts | 96° |
| 2026-05-08 18:49 | 47.48976 | 9.51401 | 1978 ft | 126 kts | 96° |
| 2026-05-08 18:50 | 47.48855 | 9.52690 | 1733 ft | 126 kts | 96° |
| 2026-05-08 18:50 | 47.48722 | 9.53974 | 1511 ft | 126 kts | 97° |
| 2026-05-08 18:50 | 47.48590 | 9.55253 | 1315 ft | 122 kts | 97° |
| 2026-05-08 18:50 | 47.48512 | 9.56006 | 1314 ft | 51 kts | 98° |
| 2026-05-08 18:51 | 47.48466 | 9.56436 | 1314 ft | 37 kts | 100° |
| 2026-05-08 18:51 | 47.48425 | 9.56841 | 1314 ft | 37 kts | 98° |
| 2026-05-08 18:51 | 47.48421 | 9.57032 | 1314 ft | 7 kts | 98° |
| 2026-05-08 18:51 | 47.48406 | 9.57000 | 1314 ft | 9 kts | 292° |
| 2026-05-08 18:52 | 47.48430 | 9.56770 | 1314 ft | 30 kts | 277° |
| 2026-05-08 18:52 | 47.48462 | 9.56469 | 1314 ft | 28 kts | 278° |
| 2026-05-08 18:52 | 47.48492 | 9.56189 | 1314 ft | 26 kts | 278° |
| 2026-05-08 18:52 | 47.48518 | 9.55929 | 1314 ft | 23 kts | 279° |
| 2026-05-08 18:53 | 47.48542 | 9.55691 | 1314 ft | 22 kts | 278° |
| 2026-05-08 18:53 | 47.48565 | 9.55468 | 1314 ft | 21 kts | 280° |
| 2026-05-08 18:53 | 47.48589 | 9.55332 | 1314 ft | 8 kts | 323° |
| 2026-05-08 18:53 | 47.48628 | 9.55330 | 1314 ft | 4 kts | 7° |
| 2026-05-08 18:54 | 47.48659 | 9.55336 | 1314 ft | 4 kts | 7° |
| 2026-05-08 18:54 | 47.48687 | 9.55341 | 1314 ft | 4 kts | 7° |
| 2026-05-08 18:54 | 47.48703 | 9.55323 | 1314 ft | 3 kts | 280° |
| 2026-05-08 18:54 | 47.48709 | 9.55304 | 1314 ft | 1 kts | 326° |
| 2026-05-08 18:55 | 47.48714 | 9.55303 | 1314 ft | 0 kts | 358° |